sensor_id;sensor_type;location;lat;lon;timestamp;pressure;altitude;pressure_sealevel;temperature;humidity
19005;BME280;9635;52.078;8.648;2023-08-01T00:03:51;98798.00;;;15.07;97.60
19005;BME280;9635;52.078;8.648;2023-08-01T00:08:54;98791.06;;;14.98;96.36
19005;BME280;9635;52.078;8.648;2023-08-01T00:13:56;98783.69;;;14.92;96.20
19005;BME280;9635;52.078;8.648;2023-08-01T00:19:01;98779.84;;;14.79;96.86
19005;BME280;9635;52.078;8.648;2023-08-01T00:24:04;98778.38;;;14.62;97.36
19005;BME280;9635;52.078;8.648;2023-08-01T00:29:09;98783.88;;;14.69;96.77
19005;BME280;9635;52.078;8.648;2023-08-01T00:34:13;98772.28;;;14.38;97.08
19005;BME280;9635;52.078;8.648;2023-08-01T00:39:16;98748.41;;;14.57;96.14
19005;BME280;9635;52.078;8.648;2023-08-01T00:44:19;98751.00;;;14.35;97.26
19005;BME280;9635;52.078;8.648;2023-08-01T00:49:24;98748.50;;;14.49;96.75
19005;BME280;9635;52.078;8.648;2023-08-01T00:54:27;98736.38;;;14.45;96.72
19005;BME280;9635;52.078;8.648;2023-08-01T00:59:32;98723.44;;;14.55;95.80
19005;BME280;9635;52.078;8.648;2023-08-01T01:04:37;98716.47;;;14.46;95.85
19005;BME280;9635;52.078;8.648;2023-08-01T01:09:41;98720.09;;;14.23;97.22
19005;BME280;9635;52.078;8.648;2023-08-01T01:14:44;98714.09;;;14.57;95.56
19005;BME280;9635;52.078;8.648;2023-08-01T01:19:48;98704.97;;;14.58;95.57
19005;BME280;9635;52.078;8.648;2023-08-01T01:24:53;98700.47;;;14.66;95.12
19005;BME280;9635;52.078;8.648;2023-08-01T01:29:58;98692.16;;;14.67;94.39
19005;BME280;9635;52.078;8.648;2023-08-01T01:35:03;98686.81;;;14.52;95.45
19005;BME280;9635;52.078;8.648;2023-08-01T01:40:08;98675.84;;;14.54;94.72
19005;BME280;9635;52.078;8.648;2023-08-01T01:45:11;98671.56;;;14.45;95.19
19005;BME280;9635;52.078;8.648;2023-08-01T01:50:14;98668.31;;;14.34;95.50
19005;BME280;9635;52.078;8.648;2023-08-01T01:55:18;98673.00;;;14.41;95.56
19005;BME280;9635;52.078;8.648;2023-08-01T02:00:22;98671.13;;;14.41;95.14
19005;BME280;9635;52.078;8.648;2023-08-01T02:05:24;98649.56;;;14.48;94.86
19005;BME280;9635;52.078;8.648;2023-08-01T02:10:29;98634.09;;;14.56;94.60
19005;BME280;9635;52.078;8.648;2023-08-01T02:15:31;98614.97;;;14.58;94.16
19005;BME280;9635;52.078;8.648;2023-08-01T02:20:34;98605.13;;;14.50;94.32
19005;BME280;9635;52.078;8.648;2023-08-01T02:25:39;98619.66;;;14.49;94.06
19005;BME280;9635;52.078;8.648;2023-08-01T02:30:42;98626.25;;;14.40;95.08
19005;BME280;9635;52.078;8.648;2023-08-01T02:35:46;98611.31;;;14.44;94.95
19005;BME280;9635;52.078;8.648;2023-08-01T02:40:50;98603.59;;;14.41;94.97
19005;BME280;9635;52.078;8.648;2023-08-01T02:45:53;98577.66;;;14.47;94.93
19005;BME280;9635;52.078;8.648;2023-08-01T02:57:44;98582.91;;;14.33;95.05
19005;BME280;9635;52.078;8.648;2023-08-01T03:02:46;98574.25;;;14.38;95.17
19005;BME280;9635;52.078;8.648;2023-08-01T03:07:49;98580.97;;;14.27;94.54
19005;BME280;9635;52.078;8.648;2023-08-01T03:12:53;98578.47;;;14.26;94.59
19005;BME280;9635;52.078;8.648;2023-08-01T03:17:56;98599.28;;;14.10;94.90
19005;BME280;9635;52.078;8.648;2023-08-01T03:22:59;98590.69;;;14.22;94.76
19005;BME280;9635;52.078;8.648;2023-08-01T03:28:04;98588.31;;;14.33;94.61
19005;BME280;9635;52.078;8.648;2023-08-01T03:33:07;98584.69;;;14.41;94.49
19005;BME280;9635;52.078;8.648;2023-08-01T03:38:10;98586.25;;;14.35;94.41
19005;BME280;9635;52.078;8.648;2023-08-01T03:43:14;98594.66;;;14.41;94.71
19005;BME280;9635;52.078;8.648;2023-08-01T03:48:16;98591.31;;;14.38;95.09
19005;BME280;9635;52.078;8.648;2023-08-01T03:53:19;98579.09;;;14.43;94.74
19005;BME280;9635;52.078;8.648;2023-08-01T03:58:23;98576.59;;;14.41;95.37
19005;BME280;9635;52.078;8.648;2023-08-01T04:03:26;98586.31;;;14.21;96.58
19005;BME280;9635;52.078;8.648;2023-08-01T04:08:29;98586.16;;;14.44;95.47
19005;BME280;9635;52.078;8.648;2023-08-01T04:13:33;98577.66;;;14.47;95.42
19005;BME280;9635;52.078;8.648;2023-08-01T04:18:36;98577.81;;;14.38;95.75
19005;BME280;9635;52.078;8.648;2023-08-01T04:23:39;98585.91;;;14.38;95.51
19005;BME280;9635;52.078;8.648;2023-08-01T04:28:45;98569.25;;;14.56;95.09
19005;BME280;9635;52.078;8.648;2023-08-01T04:33:48;98573.63;;;14.57;94.90
19005;BME280;9635;52.078;8.648;2023-08-01T04:38:51;98567.63;;;14.62;94.91
19005;BME280;9635;52.078;8.648;2023-08-01T04:43:55;98577.94;;;14.52;95.75
19005;BME280;9635;52.078;8.648;2023-08-01T04:48:58;98583.94;;;14.32;97.15
19005;BME280;9635;52.078;8.648;2023-08-01T04:54:01;98590.75;;;14.28;97.86
19005;BME280;9635;52.078;8.648;2023-08-01T04:59:06;98602.53;;;14.21;99.29
19005;BME280;9635;52.078;8.648;2023-08-01T05:04:09;98594.66;;;14.26;98.81
19005;BME280;9635;52.078;8.648;2023-08-01T05:09:12;98591.41;;;14.30;98.77
19005;BME280;9635;52.078;8.648;2023-08-01T05:14:16;98592.63;;;13.77;100.00
19005;BME280;9635;52.078;8.648;2023-08-01T05:19:19;98603.78;;;14.40;97.16
19005;BME280;9635;52.078;8.648;2023-08-01T05:24:21;98591.00;;;14.33;97.38
19005;BME280;9635;52.078;8.648;2023-08-01T05:29:26;98610.34;;;14.37;97.48
19005;BME280;9635;52.078;8.648;2023-08-01T05:34:28;98600.41;;;14.37;97.17
19005;BME280;9635;52.078;8.648;2023-08-01T05:39:31;98613.75;;;14.39;97.30
19005;BME280;9635;52.078;8.648;2023-08-01T05:44:35;98611.84;;;14.54;96.63
19005;BME280;9635;52.078;8.648;2023-08-01T05:49:38;98620.72;;;14.48;96.54
19005;BME280;9635;52.078;8.648;2023-08-01T05:54:42;98637.31;;;14.30;97.39
19005;BME280;9635;52.078;8.648;2023-08-01T05:59:47;98633.72;;;14.08;98.13
19005;BME280;9635;52.078;8.648;2023-08-01T06:04:49;98634.13;;;14.42;95.70
19005;BME280;9635;52.078;8.648;2023-08-01T06:09:52;98639.03;;;14.16;97.00
19005;BME280;9635;52.078;8.648;2023-08-01T06:14:57;98642.50;;;14.10;97.23
19005;BME280;9635;52.078;8.648;2023-08-01T06:20:00;98643.31;;;14.11;97.55
19005;BME280;9635;52.078;8.648;2023-08-01T06:25:06;98651.91;;;14.00;97.36
19005;BME280;9635;52.078;8.648;2023-08-01T06:30:11;98661.22;;;13.97;97.48
19005;BME280;9635;52.078;8.648;2023-08-01T06:35:14;98655.28;;;14.23;96.56
19005;BME280;9635;52.078;8.648;2023-08-01T06:40:17;98656.34;;;14.80;95.02
19005;BME280;9635;52.078;8.648;2023-08-01T06:45:21;98654.28;;;14.82;93.64
19005;BME280;9635;52.078;8.648;2023-08-01T06:50:24;98666.31;;;14.79;93.68
19005;BME280;9635;52.078;8.648;2023-08-01T06:55:27;98662.25;;;14.90;92.07
19005;BME280;9635;52.078;8.648;2023-08-01T07:00:31;98673.09;;;15.18;93.68
19005;BME280;9635;52.078;8.648;2023-08-01T07:05:34;98673.84;;;15.34;91.51
19005;BME280;9635;52.078;8.648;2023-08-01T07:10:37;98685.38;;;15.42;90.72
19005;BME280;9635;52.078;8.648;2023-08-01T07:15:42;98685.59;;;15.19;90.43
19005;BME280;9635;52.078;8.648;2023-08-01T07:20:45;98696.34;;;14.48;94.94
19005;BME280;9635;52.078;8.648;2023-08-01T07:25:47;98693.88;;;13.87;100.00
19005;BME280;9635;52.078;8.648;2023-08-01T07:30:59;98707.91;;;14.27;99.26
19005;BME280;9635;52.078;8.648;2023-08-01T07:36:02;98700.84;;;14.26;99.81
19005;BME280;9635;52.078;8.648;2023-08-01T07:41:06;98700.34;;;14.37;99.19
19005;BME280;9635;52.078;8.648;2023-08-01T07:46:11;98699.91;;;14.70;96.33
19005;BME280;9635;52.078;8.648;2023-08-01T07:51:14;98701.66;;;14.42;96.06
19005;BME280;9635;52.078;8.648;2023-08-01T07:56:17;98712.00;;;14.96;95.38
19005;BME280;9635;52.078;8.648;2023-08-01T08:01:21;98715.72;;;15.66;93.13
19005;BME280;9635;52.078;8.648;2023-08-01T08:06:24;98710.50;;;15.58;90.16
19005;BME280;9635;52.078;8.648;2023-08-01T08:11:27;98714.50;;;15.68;89.77
19005;BME280;9635;52.078;8.648;2023-08-01T08:16:31;98711.88;;;16.17;88.39
19005;BME280;9635;52.078;8.648;2023-08-01T08:21:35;98710.19;;;16.64;84.98
19005;BME280;9635;52.078;8.648;2023-08-01T08:26:38;98700.78;;;15.20;88.40
19005;BME280;9635;52.078;8.648;2023-08-01T08:31:43;98714.16;;;14.13;94.53
19005;BME280;9635;52.078;8.648;2023-08-01T08:36:46;98701.03;;;14.10;100.00
19005;BME280;9635;52.078;8.648;2023-08-01T08:41:52;98695.44;;;14.26;99.31
19005;BME280;9635;52.078;8.648;2023-08-01T08:46:59;98706.59;;;14.23;100.00
19005;BME280;9635;52.078;8.648;2023-08-01T08:52:06;98711.72;;;14.69;100.00
19005;BME280;9635;52.078;8.648;2023-08-01T08:57:10;98719.09;;;15.40;96.52
19005;BME280;9635;52.078;8.648;2023-08-01T09:02:15;98715.16;;;15.21;96.82
19005;BME280;9635;52.078;8.648;2023-08-01T09:07:19;98708.00;;;15.35;94.98
19005;BME280;9635;52.078;8.648;2023-08-01T09:12:26;98718.00;;;15.62;91.47
19005;BME280;9635;52.078;8.648;2023-08-01T09:17:30;98726.25;;;15.54;90.35
19005;BME280;9635;52.078;8.648;2023-08-01T09:22:41;98725.00;;;15.50;90.51
19005;BME280;9635;52.078;8.648;2023-08-01T09:27:45;98711.59;;;16.46;89.20
19005;BME280;9635;52.078;8.648;2023-08-01T09:32:52;98708.06;;;16.52;85.14
19005;BME280;9635;52.078;8.648;2023-08-01T09:38:00;98713.81;;;17.04;82.23
19005;BME280;9635;52.078;8.648;2023-08-01T09:43:02;98716.50;;;17.90;79.10
19005;BME280;9635;52.078;8.648;2023-08-01T09:48:07;98719.06;;;17.72;75.69
19005;BME280;9635;52.078;8.648;2023-08-01T09:53:10;98722.03;;;17.31;78.91
19005;BME280;9635;52.078;8.648;2023-08-01T09:58:13;98743.19;;;15.91;83.34
19005;BME280;9635;52.078;8.648;2023-08-01T10:03:19;98733.50;;;14.31;96.04
19005;BME280;9635;52.078;8.648;2023-08-01T10:08:24;98736.75;;;14.78;98.71
19005;BME280;9635;52.078;8.648;2023-08-01T10:13:29;98727.81;;;15.63;93.05
19005;BME280;9635;52.078;8.648;2023-08-01T10:18:34;98723.88;;;14.95;92.60
19005;BME280;9635;52.078;8.648;2023-08-01T10:23:39;98725.19;;;15.05;94.93
19005;BME280;9635;52.078;8.648;2023-08-01T10:28:50;98703.56;;;14.63;100.00
19005;BME280;9635;52.078;8.648;2023-08-01T10:34:04;98712.84;;;15.18;96.72
19005;BME280;9635;52.078;8.648;2023-08-01T10:39:07;98737.22;;;14.60;100.00
19005;BME280;9635;52.078;8.648;2023-08-01T10:44:12;98737.59;;;14.42;100.00
19005;BME280;9635;52.078;8.648;2023-08-01T10:49:18;98724.59;;;13.86;100.00
19005;BME280;9635;52.078;8.648;2023-08-01T10:54:22;98716.97;;;14.56;100.00
19005;BME280;9635;52.078;8.648;2023-08-01T10:59:25;98721.53;;;15.13;100.00
19005;BME280;9635;52.078;8.648;2023-08-01T11:04:30;98725.25;;;16.25;100.00
19005;BME280;9635;52.078;8.648;2023-08-01T11:09:33;98728.03;;;17.06;94.14
19005;BME280;9635;52.078;8.648;2023-08-01T11:14:35;98723.69;;;17.58;95.84
19005;BME280;9635;52.078;8.648;2023-08-01T11:19:41;98721.38;;;17.22;94.75
19005;BME280;9635;52.078;8.648;2023-08-01T11:24:49;98731.34;;;17.01;89.68
19005;BME280;9635;52.078;8.648;2023-08-01T11:29:53;98750.78;;;16.09;93.02
19005;BME280;9635;52.078;8.648;2023-08-01T11:34:57;98749.41;;;15.14;98.51
19005;BME280;9635;52.078;8.648;2023-08-01T11:40:00;98748.69;;;14.47;98.82
19005;BME280;9635;52.078;8.648;2023-08-01T11:45:08;98766.59;;;14.70;97.81
19005;BME280;9635;52.078;8.648;2023-08-01T11:50:13;98776.78;;;15.25;95.15
19005;BME280;9635;52.078;8.648;2023-08-01T11:55:21;98788.88;;;15.30;95.25
19005;BME280;9635;52.078;8.648;2023-08-01T12:00:25;98768.81;;;16.78;92.26
19005;BME280;9635;52.078;8.648;2023-08-01T12:05:30;98773.16;;;17.54;83.97
19005;BME280;9635;52.078;8.648;2023-08-01T12:10:37;98786.28;;;18.17;84.47
19005;BME280;9635;52.078;8.648;2023-08-01T12:15:40;98792.66;;;17.02;83.50
19005;BME280;9635;52.078;8.648;2023-08-01T12:20:44;98788.47;;;16.87;80.22
19005;BME280;9635;52.078;8.648;2023-08-01T12:25:47;98796.06;;;18.31;83.92
19005;BME280;9635;52.078;8.648;2023-08-01T12:30:51;98803.03;;;17.47;77.11
19005;BME280;9635;52.078;8.648;2023-08-01T12:35:55;98818.69;;;17.52;75.55
19005;BME280;9635;52.078;8.648;2023-08-01T12:40:58;98789.41;;;18.27;78.02
19005;BME280;9635;52.078;8.648;2023-08-01T12:46:00;98785.69;;;17.61;73.88
19005;BME280;9635;52.078;8.648;2023-08-01T12:51:05;98788.19;;;17.36;73.83
19005;BME280;9635;52.078;8.648;2023-08-01T12:56:08;98797.41;;;17.55;75.99
19005;BME280;9635;52.078;8.648;2023-08-01T13:01:10;98810.28;;;16.65;77.97
19005;BME280;9635;52.078;8.648;2023-08-01T13:06:15;98852.34;;;14.61;100.00
19005;BME280;9635;52.078;8.648;2023-08-01T13:11:19;98852.06;;;12.96;100.00
19005;BME280;9635;52.078;8.648;2023-08-01T13:16:22;98860.81;;;12.98;100.00
19005;BME280;9635;52.078;8.648;2023-08-01T13:21:26;98855.19;;;13.08;100.00
19005;BME280;9635;52.078;8.648;2023-08-01T13:26:29;98844.09;;;13.95;100.00
19005;BME280;9635;52.078;8.648;2023-08-01T13:31:33;98860.72;;;15.54;100.00
19005;BME280;9635;52.078;8.648;2023-08-01T13:36:37;98853.09;;;16.76;98.73
19005;BME280;9635;52.078;8.648;2023-08-01T13:41:40;98852.75;;;17.61;89.79
19005;BME280;9635;52.078;8.648;2023-08-01T13:46:43;98844.38;;;17.62;86.96
19005;BME280;9635;52.078;8.648;2023-08-01T13:51:49;98847.00;;;18.62;83.45
19005;BME280;9635;52.078;8.648;2023-08-01T13:56:52;98851.19;;;19.23;82.06
19005;BME280;9635;52.078;8.648;2023-08-01T14:01:56;98843.56;;;18.22;77.06
19005;BME280;9635;52.078;8.648;2023-08-01T14:07:00;98846.69;;;17.72;77.40
19005;BME280;9635;52.078;8.648;2023-08-01T14:12:05;98849.56;;;17.31;78.78
19005;BME280;9635;52.078;8.648;2023-08-01T14:17:08;98844.56;;;17.54;79.12
19005;BME280;9635;52.078;8.648;2023-08-01T14:22:12;98853.53;;;18.54;72.46
19005;BME280;9635;52.078;8.648;2023-08-01T14:27:15;98849.94;;;18.61;69.52
19005;BME280;9635;52.078;8.648;2023-08-01T14:32:19;98859.94;;;19.25;68.68
19005;BME280;9635;52.078;8.648;2023-08-01T14:37:24;98867.63;;;18.05;72.16
19005;BME280;9635;52.078;8.648;2023-08-01T14:42:28;98857.75;;;17.90;71.40
19005;BME280;9635;52.078;8.648;2023-08-01T14:47:31;98863.34;;;19.52;68.83
19005;BME280;9635;52.078;8.648;2023-08-01T14:52:37;98872.38;;;19.14;68.20
19005;BME280;9635;52.078;8.648;2023-08-01T14:57:40;98882.78;;;17.66;71.17
19005;BME280;9635;52.078;8.648;2023-08-01T15:02:43;98882.84;;;17.86;72.96
19005;BME280;9635;52.078;8.648;2023-08-01T15:07:47;98885.31;;;17.67;73.22
19005;BME280;9635;52.078;8.648;2023-08-01T15:12:50;98909.75;;;17.74;75.38
19005;BME280;9635;52.078;8.648;2023-08-01T15:17:53;98908.00;;;14.70;100.00
19005;BME280;9635;52.078;8.648;2023-08-01T15:22:58;98905.16;;;14.93;100.00
19005;BME280;9635;52.078;8.648;2023-08-01T15:28:01;98909.47;;;14.88;100.00
19005;BME280;9635;52.078;8.648;2023-08-01T15:33:04;98918.72;;;14.78;100.00
19005;BME280;9635;52.078;8.648;2023-08-01T15:38:10;98902.00;;;16.62;100.00
19005;BME280;9635;52.078;8.648;2023-08-01T15:43:13;98907.25;;;17.11;100.00
19005;BME280;9635;52.078;8.648;2023-08-01T15:48:16;98900.38;;;17.09;100.00
19005;BME280;9635;52.078;8.648;2023-08-01T15:53:20;98893.00;;;16.26;98.29
19005;BME280;9635;52.078;8.648;2023-08-01T15:58:24;98916.38;;;16.06;99.24
19005;BME280;9635;52.078;8.648;2023-08-01T16:03:28;98931.34;;;15.22;98.07
19005;BME280;9635;52.078;8.648;2023-08-01T16:08:32;98920.84;;;14.68;98.13
19005;BME280;9635;52.078;8.648;2023-08-01T16:13:35;98923.56;;;14.68;99.14
19005;BME280;9635;52.078;8.648;2023-08-01T16:18:38;98926.56;;;15.24;99.85
19005;BME280;9635;52.078;8.648;2023-08-01T16:23:42;98917.56;;;15.54;100.00
19005;BME280;9635;52.078;8.648;2023-08-01T16:28:45;98921.50;;;15.94;98.97
19005;BME280;9635;52.078;8.648;2023-08-01T16:33:48;98911.81;;;16.34;97.51
19005;BME280;9635;52.078;8.648;2023-08-01T16:38:52;98918.44;;;16.95;96.14
19005;BME280;9635;52.078;8.648;2023-08-01T16:43:56;98920.81;;;17.53;100.00
19005;BME280;9635;52.078;8.648;2023-08-01T16:48:59;98915.38;;;18.72;98.81
19005;BME280;9635;52.078;8.648;2023-08-01T16:54:23;98919.81;;;18.40;92.57
19005;BME280;9635;52.078;8.648;2023-08-01T16:59:26;98922.91;;;18.90;92.50
19005;BME280;9635;52.078;8.648;2023-08-01T17:04:29;98935.09;;;17.27;88.21
19005;BME280;9635;52.078;8.648;2023-08-01T17:09:34;98941.06;;;16.39;88.73
19005;BME280;9635;52.078;8.648;2023-08-01T17:14:37;98941.78;;;16.05;89.13
19005;BME280;9635;52.078;8.648;2023-08-01T17:19:40;98967.69;;;15.50;89.54
19005;BME280;9635;52.078;8.648;2023-08-01T17:24:44;98975.59;;;15.51;86.50
19005;BME280;9635;52.078;8.648;2023-08-01T17:29:47;98960.97;;;15.45;84.52
19005;BME280;9635;52.078;8.648;2023-08-01T17:34:50;98951.69;;;15.55;83.25
19005;BME280;9635;52.078;8.648;2023-08-01T17:39:54;98970.72;;;15.61;81.71
19005;BME280;9635;52.078;8.648;2023-08-01T17:44:57;98972.84;;;15.44;79.83
19005;BME280;9635;52.078;8.648;2023-08-01T17:50:00;98979.56;;;15.91;81.35
19005;BME280;9635;52.078;8.648;2023-08-01T17:55:05;98981.03;;;15.73;81.39
19005;BME280;9635;52.078;8.648;2023-08-01T18:00:09;98990.22;;;15.72;81.86
19005;BME280;9635;52.078;8.648;2023-08-01T18:05:14;98993.63;;;15.80;81.70
19005;BME280;9635;52.078;8.648;2023-08-01T18:10:19;99001.78;;;15.65;78.59
19005;BME280;9635;52.078;8.648;2023-08-01T18:15:22;99012.09;;;15.55;78.06
19005;BME280;9635;52.078;8.648;2023-08-01T18:20:25;99021.69;;;15.58;78.19
19005;BME280;9635;52.078;8.648;2023-08-01T18:25:32;99021.31;;;15.46;77.87
19005;BME280;9635;52.078;8.648;2023-08-01T18:30:36;99021.44;;;15.53;79.44
19005;BME280;9635;52.078;8.648;2023-08-01T18:35:42;99031.03;;;15.40;78.61
19005;BME280;9635;52.078;8.648;2023-08-01T18:40:47;99040.25;;;15.31;77.82
19005;BME280;9635;52.078;8.648;2023-08-01T18:45:53;99028.03;;;14.76;76.75
19005;BME280;9635;52.078;8.648;2023-08-01T18:50:56;99031.22;;;15.09;75.15
19005;BME280;9635;52.078;8.648;2023-08-01T18:56:07;99041.47;;;14.99;76.09
19005;BME280;9635;52.078;8.648;2023-08-01T19:01:15;99041.59;;;15.35;75.70
19005;BME280;9635;52.078;8.648;2023-08-01T19:06:23;99048.28;;;15.24;75.64
19005;BME280;9635;52.078;8.648;2023-08-01T19:11:28;99051.72;;;15.03;77.01
19005;BME280;9635;52.078;8.648;2023-08-01T19:16:32;99065.59;;;14.86;77.07
19005;BME280;9635;52.078;8.648;2023-08-01T19:21:35;99079.41;;;14.91;77.31
19005;BME280;9635;52.078;8.648;2023-08-01T19:26:39;99090.63;;;15.17;76.32
19005;BME280;9635;52.078;8.648;2023-08-01T19:31:42;99097.38;;;14.83;76.79
19005;BME280;9635;52.078;8.648;2023-08-01T19:36:45;99117.16;;;14.61;77.42
19005;BME280;9635;52.078;8.648;2023-08-01T19:41:49;99108.47;;;14.89;77.25
19005;BME280;9635;52.078;8.648;2023-08-01T19:46:52;99109.59;;;14.94;76.33
19005;BME280;9635;52.078;8.648;2023-08-01T19:51:55;99110.72;;;14.85;75.66
19005;BME280;9635;52.078;8.648;2023-08-01T19:56:59;99109.06;;;14.61;73.85
19005;BME280;9635;52.078;8.648;2023-08-01T20:02:03;99117.63;;;15.02;72.20
19005;BME280;9635;52.078;8.648;2023-08-01T20:07:06;99100.72;;;14.71;71.85
19005;BME280;9635;52.078;8.648;2023-08-01T20:12:11;99109.88;;;14.85;71.15
19005;BME280;9635;52.078;8.648;2023-08-01T20:17:13;99120.16;;;15.04;70.57
19005;BME280;9635;52.078;8.648;2023-08-01T20:22:17;99109.88;;;14.85;71.26
19005;BME280;9635;52.078;8.648;2023-08-01T20:27:21;99122.59;;;14.99;70.96
19005;BME280;9635;52.078;8.648;2023-08-01T20:32:24;99125.03;;;15.23;70.86
19005;BME280;9635;52.078;8.648;2023-08-01T20:37:27;99129.94;;;14.90;71.66
19005;BME280;9635;52.078;8.648;2023-08-01T20:42:31;99127.59;;;15.40;70.65
19005;BME280;9635;52.078;8.648;2023-08-01T20:47:34;99136.84;;;14.93;71.50
19005;BME280;9635;52.078;8.648;2023-08-01T20:52:37;99130.16;;;15.18;71.49
19005;BME280;9635;52.078;8.648;2023-08-01T20:57:41;99124.38;;;15.21;72.04
19005;BME280;9635;52.078;8.648;2023-08-01T21:02:47;99132.03;;;15.03;72.09
19005;BME280;9635;52.078;8.648;2023-08-01T21:07:51;99129.59;;;14.70;73.33
19005;BME280;9635;52.078;8.648;2023-08-01T21:12:55;99127.81;;;15.15;72.45
19005;BME280;9635;52.078;8.648;2023-08-01T21:17:58;99119.91;;;15.29;72.03
19005;BME280;9635;52.078;8.648;2023-08-01T21:23:01;99114.06;;;15.25;72.03
19005;BME280;9635;52.078;8.648;2023-08-01T21:28:05;99129.56;;;15.08;73.08
19005;BME280;9635;52.078;8.648;2023-08-01T21:33:08;99125.50;;;15.27;73.08
19005;BME280;9635;52.078;8.648;2023-08-01T21:38:11;99125.59;;;15.19;73.14
19005;BME280;9635;52.078;8.648;2023-08-01T21:43:17;99132.78;;;15.12;73.73
19005;BME280;9635;52.078;8.648;2023-08-01T21:48:20;99131.38;;;15.16;74.20
19005;BME280;9635;52.078;8.648;2023-08-01T21:53:23;99129.31;;;15.18;74.88
19005;BME280;9635;52.078;8.648;2023-08-01T21:58:27;99131.56;;;15.14;75.08
19005;BME280;9635;52.078;8.648;2023-08-01T22:03:30;99115.66;;;15.34;74.27
19005;BME280;9635;52.078;8.648;2023-08-01T22:08:33;99122.09;;;15.33;74.27
19005;BME280;9635;52.078;8.648;2023-08-01T22:13:37;99119.66;;;15.38;73.72
19005;BME280;9635;52.078;8.648;2023-08-01T22:18:40;99120.94;;;15.27;73.65
19005;BME280;9635;52.078;8.648;2023-08-01T22:23:43;99123.56;;;15.36;73.58
19005;BME280;9635;52.078;8.648;2023-08-01T22:28:47;99124.25;;;15.38;72.86
19005;BME280;9635;52.078;8.648;2023-08-01T22:33:50;99114.16;;;15.46;72.54
19005;BME280;9635;52.078;8.648;2023-08-01T22:38:53;99109.88;;;15.52;72.34
19005;BME280;9635;52.078;8.648;2023-08-01T22:43:57;99117.16;;;15.52;72.11
19005;BME280;9635;52.078;8.648;2023-08-01T22:49:00;99116.97;;;15.53;71.92
19005;BME280;9635;52.078;8.648;2023-08-01T22:54:03;99109.69;;;15.54;72.58
19005;BME280;9635;52.078;8.648;2023-08-01T22:59:08;99114.34;;;15.45;72.38
19005;BME280;9635;52.078;8.648;2023-08-01T23:04:11;99106.69;;;15.34;72.33
19005;BME280;9635;52.078;8.648;2023-08-01T23:09:14;99107.84;;;15.39;72.16
19005;BME280;9635;52.078;8.648;2023-08-01T23:14:19;99108.06;;;15.30;71.86
19005;BME280;9635;52.078;8.648;2023-08-01T23:19:22;99106.13;;;15.38;71.70
19005;BME280;9635;52.078;8.648;2023-08-01T23:24:24;99113.09;;;15.33;71.64
19005;BME280;9635;52.078;8.648;2023-08-01T23:29:29;99102.09;;;15.19;71.95
19005;BME280;9635;52.078;8.648;2023-08-01T23:34:32;99098.88;;;15.39;71.28
19005;BME280;9635;52.078;8.648;2023-08-01T23:39:34;99097.00;;;15.39;71.72
19005;BME280;9635;52.078;8.648;2023-08-01T23:44:39;99105.28;;;15.23;72.13
19005;BME280;9635;52.078;8.648;2023-08-01T23:49:41;99102.06;;;15.04;72.39
19005;BME280;9635;52.078;8.648;2023-08-01T23:54:44;99100.88;;;15.22;72.00
19005;BME280;9635;52.078;8.648;2023-08-01T23:59:48;99097.22;;;15.00;72.70
